sensor_id;sensor_type;location;lat;lon;timestamp;temperature;humidity
17621;DHT22;8929;51.008;6.804;2023-02-14T00:00:32;7.00;1.00
17621;DHT22;8929;51.008;6.804;2023-02-14T00:03:03;7.00;1.00
17621;DHT22;8929;51.008;6.804;2023-02-14T00:05:35;6.90;1.00
17621;DHT22;8929;51.008;6.804;2023-02-14T00:08:11;6.80;1.00
17621;DHT22;8929;51.008;6.804;2023-02-14T00:10:44;6.80;1.00
17621;DHT22;8929;51.008;6.804;2023-02-14T00:15:58;6.70;1.00
17621;DHT22;8929;51.008;6.804;2023-02-14T00:18:31;6.60;1.00
17621;DHT22;8929;51.008;6.804;2023-02-14T00:21:19;6.50;1.00
17621;DHT22;8929;51.008;6.804;2023-02-14T00:23:46;6.40;1.00
17621;DHT22;8929;51.008;6.804;2023-02-14T00:26:13;6.30;1.00
17621;DHT22;8929;51.008;6.804;2023-02-14T00:31:31;6.20;1.00
17621;DHT22;8929;51.008;6.804;2023-02-14T00:39:44;6.10;1.00
17621;DHT22;8929;51.008;6.804;2023-02-14T00:42:13;6.00;1.00
17621;DHT22;8929;51.008;6.804;2023-02-14T00:47:28;6.00;1.00
17621;DHT22;8929;51.008;6.804;2023-02-14T00:49:54;5.90;1.00
17621;DHT22;8929;51.008;6.804;2023-02-14T00:52:19;5.90;1.00
17621;DHT22;8929;51.008;6.804;2023-02-14T00:54:45;5.90;1.00
17621;DHT22;8929;51.008;6.804;2023-02-14T00:57:10;5.90;1.00
17621;DHT22;8929;51.008;6.804;2023-02-14T00:59:36;5.80;1.00
17621;DHT22;8929;51.008;6.804;2023-02-14T01:02:01;5.80;1.00
17621;DHT22;8929;51.008;6.804;2023-02-14T01:04:27;5.80;1.00
17621;DHT22;8929;51.008;6.804;2023-02-14T01:06:52;5.80;1.00
17621;DHT22;8929;51.008;6.804;2023-02-14T01:09:18;5.70;1.00
17621;DHT22;8929;51.008;6.804;2023-02-14T01:11:43;5.80;1.00
17621;DHT22;8929;51.008;6.804;2023-02-14T01:14:09;5.70;1.00
17621;DHT22;8929;51.008;6.804;2023-02-14T01:16:34;5.80;1.00
17621;DHT22;8929;51.008;6.804;2023-02-14T01:19:00;5.80;1.00
17621;DHT22;8929;51.008;6.804;2023-02-14T01:21:27;5.80;1.00
17621;DHT22;8929;51.008;6.804;2023-02-14T01:23:54;5.70;1.00
17621;DHT22;8929;51.008;6.804;2023-02-14T01:26:20;5.70;1.00
17621;DHT22;8929;51.008;6.804;2023-02-14T01:28:46;5.60;1.00
17621;DHT22;8929;51.008;6.804;2023-02-14T01:33:38;5.60;1.00
17621;DHT22;8929;51.008;6.804;2023-02-14T01:36:03;5.50;1.00
17621;DHT22;8929;51.008;6.804;2023-02-14T01:38:29;5.50;1.00
17621;DHT22;8929;51.008;6.804;2023-02-14T01:40:54;5.40;1.00
17621;DHT22;8929;51.008;6.804;2023-02-14T01:43:20;5.40;1.00
17621;DHT22;8929;51.008;6.804;2023-02-14T01:45:45;5.40;1.00
17621;DHT22;8929;51.008;6.804;2023-02-14T01:48:11;5.30;1.00
17621;DHT22;8929;51.008;6.804;2023-02-14T01:50:37;5.30;1.00
17621;DHT22;8929;51.008;6.804;2023-02-14T01:53:05;5.30;1.00
17621;DHT22;8929;51.008;6.804;2023-02-14T01:55:32;5.30;1.00
17621;DHT22;8929;51.008;6.804;2023-02-14T01:58:00;5.30;1.00
17621;DHT22;8929;51.008;6.804;2023-02-14T02:00:27;5.30;1.00
17621;DHT22;8929;51.008;6.804;2023-02-14T02:03:11;5.30;1.00
17621;DHT22;8929;51.008;6.804;2023-02-14T02:05:39;5.30;1.00
17621;DHT22;8929;51.008;6.804;2023-02-14T02:08:05;5.30;1.00
17621;DHT22;8929;51.008;6.804;2023-02-14T02:10:31;5.20;1.00
17621;DHT22;8929;51.008;6.804;2023-02-14T02:12:56;5.10;1.00
17621;DHT22;8929;51.008;6.804;2023-02-14T02:15:24;5.00;1.00
17621;DHT22;8929;51.008;6.804;2023-02-14T02:38:54;4.50;1.00
17621;DHT22;8929;51.008;6.804;2023-02-14T02:43:53;4.50;1.00
17621;DHT22;8929;51.008;6.804;2023-02-14T02:50:01;4.40;1.00
17621;DHT22;8929;51.008;6.804;2023-02-14T02:52:22;4.40;1.00
17621;DHT22;8929;51.008;6.804;2023-02-14T02:55:15;4.30;1.00
17621;DHT22;8929;51.008;6.804;2023-02-14T02:57:43;4.30;1.00
17621;DHT22;8929;51.008;6.804;2023-02-14T03:00:10;4.30;1.00
17621;DHT22;8929;51.008;6.804;2023-02-14T03:02:46;4.30;1.00
17621;DHT22;8929;51.008;6.804;2023-02-14T03:05:31;4.20;1.00
17621;DHT22;8929;51.008;6.804;2023-02-14T03:07:58;4.30;1.00
17621;DHT22;8929;51.008;6.804;2023-02-14T03:10:25;4.30;1.00
17621;DHT22;8929;51.008;6.804;2023-02-14T03:18:04;4.30;9.20
17621;DHT22;8929;51.008;6.804;2023-02-14T03:20:46;4.40;1.00
17621;DHT22;8929;51.008;6.804;2023-02-14T03:30:37;4.40;6.40
17621;DHT22;8929;51.008;6.804;2023-02-14T03:33:11;4.40;5.40
17621;DHT22;8929;51.008;6.804;2023-02-14T03:38:12;4.50;12.10
17621;DHT22;8929;51.008;6.804;2023-02-14T03:40:46;4.50;7.20
17621;DHT22;8929;51.008;6.804;2023-02-14T03:43:32;4.50;9.40
17621;DHT22;8929;51.008;6.804;2023-02-14T03:48:27;4.50;10.20
17621;DHT22;8929;51.008;6.804;2023-02-14T03:50:53;4.50;3.30
17621;DHT22;8929;51.008;6.804;2023-02-14T03:53:21;4.50;6.00
17621;DHT22;8929;51.008;6.804;2023-02-14T03:55:53;4.50;11.60
17621;DHT22;8929;51.008;6.804;2023-02-14T03:58:26;4.50;5.30
17621;DHT22;8929;51.008;6.804;2023-02-14T04:00:53;4.50;8.50
17621;DHT22;8929;51.008;6.804;2023-02-14T04:03:20;4.50;6.70
17621;DHT22;8929;51.008;6.804;2023-02-14T04:05:53;4.50;6.00
17621;DHT22;8929;51.008;6.804;2023-02-14T04:11:03;4.50;1.00
17621;DHT22;8929;51.008;6.804;2023-02-14T04:13:30;4.40;1.00
17621;DHT22;8929;51.008;6.804;2023-02-14T04:16:02;4.40;1.00
17621;DHT22;8929;51.008;6.804;2023-02-14T04:18:31;4.30;1.00
17621;DHT22;8929;51.008;6.804;2023-02-14T04:21:20;4.30;1.00
17621;DHT22;8929;51.008;6.804;2023-02-14T04:23:54;4.20;1.00
17621;DHT22;8929;51.008;6.804;2023-02-14T04:26:26;4.10;1.00
17621;DHT22;8929;51.008;6.804;2023-02-14T04:28:57;4.10;1.00
17621;DHT22;8929;51.008;6.804;2023-02-14T04:31:28;4.00;1.00
17621;DHT22;8929;51.008;6.804;2023-02-14T04:34:05;4.00;1.00
17621;DHT22;8929;51.008;6.804;2023-02-14T04:36:42;4.00;1.00
17621;DHT22;8929;51.008;6.804;2023-02-14T04:39:10;4.00;1.00
17621;DHT22;8929;51.008;6.804;2023-02-14T04:41:41;4.00;1.00
17621;DHT22;8929;51.008;6.804;2023-02-14T04:44:16;3.90;1.00
17621;DHT22;8929;51.008;6.804;2023-02-14T04:46:45;3.80;1.00
17621;DHT22;8929;51.008;6.804;2023-02-14T04:49:16;3.70;1.00
17621;DHT22;8929;51.008;6.804;2023-02-14T04:52:03;3.70;1.00
17621;DHT22;8929;51.008;6.804;2023-02-14T04:54:33;3.60;1.00
17621;DHT22;8929;51.008;6.804;2023-02-14T04:57:06;3.60;2.70
17621;DHT22;8929;51.008;6.804;2023-02-14T05:02:16;3.50;1.70
17621;DHT22;8929;51.008;6.804;2023-02-14T05:04:47;3.50;4.40
17621;DHT22;8929;51.008;6.804;2023-02-14T05:07:18;3.40;6.80
17621;DHT22;8929;51.008;6.804;2023-02-14T05:09:48;3.40;7.30
17621;DHT22;8929;51.008;6.804;2023-02-14T05:12:19;3.40;8.20
17621;DHT22;8929;51.008;6.804;2023-02-14T05:14:52;3.40;12.80
17621;DHT22;8929;51.008;6.804;2023-02-14T05:17:30;3.30;8.70
17621;DHT22;8929;51.008;6.804;2023-02-14T05:20:02;3.30;14.10
17621;DHT22;8929;51.008;6.804;2023-02-14T05:22:38;3.30;12.90
17621;DHT22;8929;51.008;6.804;2023-02-14T05:25:06;3.30;17.80
17621;DHT22;8929;51.008;6.804;2023-02-14T05:27:39;3.30;14.80
17621;DHT22;8929;51.008;6.804;2023-02-14T05:30:04;3.30;19.80
17621;DHT22;8929;51.008;6.804;2023-02-14T05:32:34;3.30;25.40
17621;DHT22;8929;51.008;6.804;2023-02-14T05:35:17;3.30;27.00
17621;DHT22;8929;51.008;6.804;2023-02-14T05:37:43;3.40;40.80
17621;DHT22;8929;51.008;6.804;2023-02-14T05:40:08;3.50;39.70
17621;DHT22;8929;51.008;6.804;2023-02-14T05:42:37;3.50;46.30
17621;DHT22;8929;51.008;6.804;2023-02-14T05:45:03;3.70;69.30
17621;DHT22;8929;51.008;6.804;2023-02-14T05:47:28;3.80;69.90
17621;DHT22;8929;51.008;6.804;2023-02-14T05:49:54;3.90;69.60
17621;DHT22;8929;51.008;6.804;2023-02-14T05:52:19;4.00;73.80
17621;DHT22;8929;51.008;6.804;2023-02-14T05:54:45;4.00;65.30
17621;DHT22;8929;51.008;6.804;2023-02-14T05:57:10;4.00;58.20
17621;DHT22;8929;51.008;6.804;2023-02-14T05:59:36;4.00;51.00
17621;DHT22;8929;51.008;6.804;2023-02-14T06:02:01;4.00;45.50
17621;DHT22;8929;51.008;6.804;2023-02-14T06:04:26;4.10;44.80
17621;DHT22;8929;51.008;6.804;2023-02-14T06:06:52;4.10;35.80
17621;DHT22;8929;51.008;6.804;2023-02-14T06:09:17;4.10;37.60
17621;DHT22;8929;51.008;6.804;2023-02-14T06:11:44;4.10;34.00
17621;DHT22;8929;51.008;6.804;2023-02-14T06:14:09;4.00;33.20
17621;DHT22;8929;51.008;6.804;2023-02-14T06:16:35;4.10;31.30
17621;DHT22;8929;51.008;6.804;2023-02-14T06:19:00;4.00;20.40
17621;DHT22;8929;51.008;6.804;2023-02-14T06:21:26;4.00;25.50
17621;DHT22;8929;51.008;6.804;2023-02-14T06:23:51;4.00;30.40
17621;DHT22;8929;51.008;6.804;2023-02-14T06:26:17;4.00;29.10
17621;DHT22;8929;51.008;6.804;2023-02-14T06:28:42;4.00;31.70
17621;DHT22;8929;51.008;6.804;2023-02-14T06:31:13;4.00;37.10
17621;DHT22;8929;51.008;6.804;2023-02-14T06:33:46;4.00;42.00
17621;DHT22;8929;51.008;6.804;2023-02-14T06:36:12;4.00;32.50
17621;DHT22;8929;51.008;6.804;2023-02-14T06:38:37;3.90;34.60
17621;DHT22;8929;51.008;6.804;2023-02-14T06:41:03;3.90;39.10
17621;DHT22;8929;51.008;6.804;2023-02-14T06:43:29;3.90;40.20
17621;DHT22;8929;51.008;6.804;2023-02-14T06:45:54;3.90;40.20
17621;DHT22;8929;51.008;6.804;2023-02-14T06:48:20;3.90;46.70
17621;DHT22;8929;51.008;6.804;2023-02-14T06:50:46;3.80;41.00
17621;DHT22;8929;51.008;6.804;2023-02-14T06:53:11;3.80;43.40
17621;DHT22;8929;51.008;6.804;2023-02-14T06:55:37;3.90;41.20
17621;DHT22;8929;51.008;6.804;2023-02-14T06:58:04;3.90;45.30
17621;DHT22;8929;51.008;6.804;2023-02-14T07:00:29;3.90;49.90
17621;DHT22;8929;51.008;6.804;2023-02-14T07:02:55;3.90;40.90
17621;DHT22;8929;51.008;6.804;2023-02-14T07:05:23;3.90;29.70
17621;DHT22;8929;51.008;6.804;2023-02-14T07:07:49;3.90;31.90
17621;DHT22;8929;51.008;6.804;2023-02-14T07:10:15;3.90;25.30
17621;DHT22;8929;51.008;6.804;2023-02-14T07:12:40;3.90;26.30
17621;DHT22;8929;51.008;6.804;2023-02-14T07:17:39;4.00;42.60
17621;DHT22;8929;51.008;6.804;2023-02-14T07:20:05;4.10;48.80
17621;DHT22;8929;51.008;6.804;2023-02-14T07:22:31;4.20;57.60
17621;DHT22;8929;51.008;6.804;2023-02-14T07:24:56;4.30;60.80
17621;DHT22;8929;51.008;6.804;2023-02-14T07:27:22;4.40;62.00
17621;DHT22;8929;51.008;6.804;2023-02-14T07:29:47;4.50;50.40
17621;DHT22;8929;51.008;6.804;2023-02-14T07:32:13;4.60;51.40
17621;DHT22;8929;51.008;6.804;2023-02-14T07:34:38;4.60;45.90
17621;DHT22;8929;51.008;6.804;2023-02-14T07:37:04;4.70;47.50
17621;DHT22;8929;51.008;6.804;2023-02-14T07:39:29;4.80;42.60
17621;DHT22;8929;51.008;6.804;2023-02-14T07:41:55;4.90;36.90
17621;DHT22;8929;51.008;6.804;2023-02-14T07:44:20;5.00;34.10
17621;DHT22;8929;51.008;6.804;2023-02-14T07:46:46;5.00;30.00
17621;DHT22;8929;51.008;6.804;2023-02-14T07:49:11;5.10;27.20
17621;DHT22;8929;51.008;6.804;2023-02-14T07:51:37;5.20;19.70
17621;DHT22;8929;51.008;6.804;2023-02-14T07:54:02;5.20;20.10
17621;DHT22;8929;51.008;6.804;2023-02-14T07:56:28;5.30;15.70
17621;DHT22;8929;51.008;6.804;2023-02-14T07:58:54;5.40;20.70
17621;DHT22;8929;51.008;6.804;2023-02-14T08:01:19;5.40;14.40
17621;DHT22;8929;51.008;6.804;2023-02-14T08:03:45;5.50;11.70
17621;DHT22;8929;51.008;6.804;2023-02-14T08:06:14;5.60;6.70
17621;DHT22;8929;51.008;6.804;2023-02-14T08:08:39;5.70;6.90
17621;DHT22;8929;51.008;6.804;2023-02-14T08:11:05;5.70;1.00
17621;DHT22;8929;51.008;6.804;2023-02-14T08:13:30;5.90;1.00
17621;DHT22;8929;51.008;6.804;2023-02-14T08:15:56;5.90;1.00
17621;DHT22;8929;51.008;6.804;2023-02-14T08:18:31;6.00;1.00
17621;DHT22;8929;51.008;6.804;2023-02-14T08:20:57;6.10;1.00
17621;DHT22;8929;51.008;6.804;2023-02-14T08:23:23;6.20;1.00
17621;DHT22;8929;51.008;6.804;2023-02-14T08:25:48;6.30;1.00
17621;DHT22;8929;51.008;6.804;2023-02-14T08:28:14;6.40;1.00
17621;DHT22;8929;51.008;6.804;2023-02-14T08:30:40;6.50;1.00
17621;DHT22;8929;51.008;6.804;2023-02-14T08:33:05;6.50;1.00
17621;DHT22;8929;51.008;6.804;2023-02-14T08:35:31;6.60;1.00
17621;DHT22;8929;51.008;6.804;2023-02-14T08:37:56;6.60;1.00
17621;DHT22;8929;51.008;6.804;2023-02-14T08:40:22;6.70;1.00
17621;DHT22;8929;51.008;6.804;2023-02-14T08:42:47;6.70;1.00
17621;DHT22;8929;51.008;6.804;2023-02-14T08:45:13;6.80;1.00
17621;DHT22;8929;51.008;6.804;2023-02-14T08:47:39;6.90;1.00
17621;DHT22;8929;51.008;6.804;2023-02-14T08:50:05;6.90;1.00
17621;DHT22;8929;51.008;6.804;2023-02-14T08:52:31;7.00;1.00
17621;DHT22;8929;51.008;6.804;2023-02-14T08:54:56;7.00;1.00
17621;DHT22;8929;51.008;6.804;2023-02-14T08:57:22;7.10;1.00
17621;DHT22;8929;51.008;6.804;2023-02-14T08:59:47;7.20;1.00
17621;DHT22;8929;51.008;6.804;2023-02-14T09:02:13;7.30;1.00
17621;DHT22;8929;51.008;6.804;2023-02-14T09:04:38;7.30;1.00
17621;DHT22;8929;51.008;6.804;2023-02-14T09:07:04;7.40;1.00
17621;DHT22;8929;51.008;6.804;2023-02-14T09:09:30;7.50;1.00
17621;DHT22;8929;51.008;6.804;2023-02-14T09:11:55;7.60;1.00
17621;DHT22;8929;51.008;6.804;2023-02-14T09:14:21;7.70;1.00
17621;DHT22;8929;51.008;6.804;2023-02-14T09:16:48;7.80;1.00
17621;DHT22;8929;51.008;6.804;2023-02-14T09:19:14;7.90;1.00
17621;DHT22;8929;51.008;6.804;2023-02-14T09:21:40;7.90;1.00
17621;DHT22;8929;51.008;6.804;2023-02-14T09:24:05;8.00;1.00
17621;DHT22;8929;51.008;6.804;2023-02-14T09:26:31;8.10;1.00
17621;DHT22;8929;51.008;6.804;2023-02-14T09:28:57;8.10;1.00
17621;DHT22;8929;51.008;6.804;2023-02-14T09:31:23;8.20;1.00
17621;DHT22;8929;51.008;6.804;2023-02-14T09:33:49;8.20;1.00
17621;DHT22;8929;51.008;6.804;2023-02-14T09:36:15;8.30;1.00
17621;DHT22;8929;51.008;6.804;2023-02-14T09:38:47;8.40;1.00
17621;DHT22;8929;51.008;6.804;2023-02-14T09:41:59;8.40;1.00
17621;DHT22;8929;51.008;6.804;2023-02-14T09:44:02;8.50;1.00
17621;DHT22;8929;51.008;6.804;2023-02-14T09:46:29;8.60;1.00
17621;DHT22;8929;51.008;6.804;2023-02-14T09:48:57;8.60;1.00
17621;DHT22;8929;51.008;6.804;2023-02-14T09:51:24;8.70;1.00
17621;DHT22;8929;51.008;6.804;2023-02-14T09:54:04;8.80;1.00
17621;DHT22;8929;51.008;6.804;2023-02-14T09:59:22;9.00;99.90
17621;DHT22;8929;51.008;6.804;2023-02-14T10:01:48;9.20;99.90
17621;DHT22;8929;51.008;6.804;2023-02-14T10:07:05;9.40;99.90
17621;DHT22;8929;51.008;6.804;2023-02-14T10:12:02;9.50;99.90
17621;DHT22;8929;51.008;6.804;2023-02-14T10:14:29;9.60;1.00
17621;DHT22;8929;51.008;6.804;2023-02-14T10:16:58;9.60;1.00
17621;DHT22;8929;51.008;6.804;2023-02-14T10:19:33;9.60;10.40
17621;DHT22;8929;51.008;6.804;2023-02-14T10:22:03;9.80;1.00
17621;DHT22;8929;51.008;6.804;2023-02-14T10:24:35;9.80;1.00
17621;DHT22;8929;51.008;6.804;2023-02-14T10:27:09;10.00;1.00
17621;DHT22;8929;51.008;6.804;2023-02-14T10:29:35;10.10;99.90
17621;DHT22;8929;51.008;6.804;2023-02-14T10:32:01;10.20;99.90
17621;DHT22;8929;51.008;6.804;2023-02-14T10:39:42;10.40;99.90
17621;DHT22;8929;51.008;6.804;2023-02-14T10:44:58;10.60;1.00
17621;DHT22;8929;51.008;6.804;2023-02-14T10:55:26;11.20;99.90
17621;DHT22;8929;51.008;6.804;2023-02-14T10:57:56;11.30;1.00
17621;DHT22;8929;51.008;6.804;2023-02-14T11:02:49;11.50;99.90
17621;DHT22;8929;51.008;6.804;2023-02-14T11:08:00;11.90;99.90
17621;DHT22;8929;51.008;6.804;2023-02-14T11:10:28;12.20;1.00
17621;DHT22;8929;51.008;6.804;2023-02-14T11:12:55;13.00;99.90
17621;DHT22;8929;51.008;6.804;2023-02-14T11:17:46;18.70;1.00
17621;DHT22;8929;51.008;6.804;2023-02-14T11:22:43;23.30;1.00
17621;DHT22;8929;51.008;6.804;2023-02-14T11:25:18;24.60;1.00
17621;DHT22;8929;51.008;6.804;2023-02-14T11:27:45;25.80;1.00
17621;DHT22;8929;51.008;6.804;2023-02-14T11:30:19;26.70;1.00
17621;DHT22;8929;51.008;6.804;2023-02-14T11:32:48;28.00;1.00
17621;DHT22;8929;51.008;6.804;2023-02-14T11:54:51;31.10;1.00
17621;DHT22;8929;51.008;6.804;2023-02-14T11:59:46;31.10;1.00
17621;DHT22;8929;51.008;6.804;2023-02-14T12:04:38;32.40;1.00
17621;DHT22;8929;51.008;6.804;2023-02-14T12:09:39;32.20;1.00
17621;DHT22;8929;51.008;6.804;2023-02-14T12:12:15;32.30;1.00
17621;DHT22;8929;51.008;6.804;2023-02-14T12:14:40;33.10;1.00
17621;DHT22;8929;51.008;6.804;2023-02-14T12:19:52;33.10;1.00
17621;DHT22;8929;51.008;6.804;2023-02-14T12:23:03;33.30;1.00
17621;DHT22;8929;51.008;6.804;2023-02-14T12:25:11;32.90;1.00
17621;DHT22;8929;51.008;6.804;2023-02-14T12:27:46;32.20;1.00
17621;DHT22;8929;51.008;6.804;2023-02-14T12:32:52;32.20;1.00
17621;DHT22;8929;51.008;6.804;2023-02-14T12:35:21;30.60;1.00
17621;DHT22;8929;51.008;6.804;2023-02-14T12:43:02;27.80;1.00
17621;DHT22;8929;51.008;6.804;2023-02-14T12:48:19;27.00;1.00
17621;DHT22;8929;51.008;6.804;2023-02-14T13:11:42;26.90;1.00
17621;DHT22;8929;51.008;6.804;2023-02-14T13:19:20;29.80;1.00
17621;DHT22;8929;51.008;6.804;2023-02-14T13:21:48;30.90;1.00
17621;DHT22;8929;51.008;6.804;2023-02-14T13:26:43;33.30;1.00
17621;DHT22;8929;51.008;6.804;2023-02-14T13:29:12;33.50;1.00
17621;DHT22;8929;51.008;6.804;2023-02-14T13:31:38;33.40;1.00
17621;DHT22;8929;51.008;6.804;2023-02-14T13:34:23;32.70;1.00
17621;DHT22;8929;51.008;6.804;2023-02-14T13:36:54;32.80;1.00
17621;DHT22;8929;51.008;6.804;2023-02-14T13:39:24;31.10;1.00
17621;DHT22;8929;51.008;6.804;2023-02-14T13:41:53;30.10;1.00
17621;DHT22;8929;51.008;6.804;2023-02-14T13:47:03;28.00;1.00
17621;DHT22;8929;51.008;6.804;2023-02-14T13:49:30;26.60;1.00
17621;DHT22;8929;51.008;6.804;2023-02-14T13:52:00;25.50;1.00
17621;DHT22;8929;51.008;6.804;2023-02-14T13:54:32;24.50;99.90
17621;DHT22;8929;51.008;6.804;2023-02-14T13:56:58;23.70;99.90
17621;DHT22;8929;51.008;6.804;2023-02-14T13:59:32;22.80;99.90
17621;DHT22;8929;51.008;6.804;2023-02-14T14:04:42;20.80;99.90
17621;DHT22;8929;51.008;6.804;2023-02-14T14:10:03;19.70;99.90
17621;DHT22;8929;51.008;6.804;2023-02-14T14:19:58;20.40;99.90
17621;DHT22;8929;51.008;6.804;2023-02-14T14:22:24;21.10;99.90
17621;DHT22;8929;51.008;6.804;2023-02-14T14:24:51;21.80;99.90
17621;DHT22;8929;51.008;6.804;2023-02-14T14:27:39;21.90;99.90
17621;DHT22;8929;51.008;6.804;2023-02-14T14:30:14;21.80;99.90
17621;DHT22;8929;51.008;6.804;2023-02-14T14:32:41;21.60;99.90
17621;DHT22;8929;51.008;6.804;2023-02-14T14:37:47;20.90;99.90
17621;DHT22;8929;51.008;6.804;2023-02-14T14:40:35;20.50;99.90
17621;DHT22;8929;51.008;6.804;2023-02-14T14:43:06;20.10;99.90
17621;DHT22;8929;51.008;6.804;2023-02-14T14:45:34;19.80;99.90
17621;DHT22;8929;51.008;6.804;2023-02-14T14:48:01;19.40;99.90
17621;DHT22;8929;51.008;6.804;2023-02-14T14:50:31;19.00;99.90
17621;DHT22;8929;51.008;6.804;2023-02-14T14:53:01;18.80;99.90
17621;DHT22;8929;51.008;6.804;2023-02-14T14:55:37;18.60;99.90
17621;DHT22;8929;51.008;6.804;2023-02-14T14:58:04;18.30;99.90
17621;DHT22;8929;51.008;6.804;2023-02-14T15:00:31;18.10;99.90
17621;DHT22;8929;51.008;6.804;2023-02-14T15:02:59;17.90;99.90
17621;DHT22;8929;51.008;6.804;2023-02-14T15:05:26;17.70;99.90
17621;DHT22;8929;51.008;6.804;2023-02-14T15:07:52;17.50;99.90
17621;DHT22;8929;51.008;6.804;2023-02-14T15:10:25;17.30;99.90
17621;DHT22;8929;51.008;6.804;2023-02-14T15:12:51;17.10;99.90
17621;DHT22;8929;51.008;6.804;2023-02-14T15:15:36;17.00;99.90
17621;DHT22;8929;51.008;6.804;2023-02-14T15:18:05;16.80;99.90
17621;DHT22;8929;51.008;6.804;2023-02-14T15:20:31;16.60;99.90
17621;DHT22;8929;51.008;6.804;2023-02-14T15:22:57;16.40;99.90
17621;DHT22;8929;51.008;6.804;2023-02-14T15:25:27;16.30;99.90
17621;DHT22;8929;51.008;6.804;2023-02-14T15:27:55;16.20;99.90
17621;DHT22;8929;51.008;6.804;2023-02-14T15:30:25;16.00;99.90
17621;DHT22;8929;51.008;6.804;2023-02-14T15:32:53;15.90;99.90
17621;DHT22;8929;51.008;6.804;2023-02-14T15:35:26;15.90;99.90
17621;DHT22;8929;51.008;6.804;2023-02-14T15:37:53;15.80;99.90
17621;DHT22;8929;51.008;6.804;2023-02-14T15:40:24;15.70;99.90
17621;DHT22;8929;51.008;6.804;2023-02-14T15:42:50;15.70;99.90
17621;DHT22;8929;51.008;6.804;2023-02-14T15:47:51;15.50;99.90
17621;DHT22;8929;51.008;6.804;2023-02-14T15:50:18;15.40;99.90
17621;DHT22;8929;51.008;6.804;2023-02-14T15:52:44;15.20;99.90
17621;DHT22;8929;51.008;6.804;2023-02-14T15:55:10;15.10;99.90
17621;DHT22;8929;51.008;6.804;2023-02-14T15:57:37;15.00;99.90
17621;DHT22;8929;51.008;6.804;2023-02-14T16:00:05;14.80;1.00
17621;DHT22;8929;51.008;6.804;2023-02-14T16:02:41;14.80;1.00
17621;DHT22;8929;51.008;6.804;2023-02-14T16:05:13;14.60;1.00
17621;DHT22;8929;51.008;6.804;2023-02-14T16:07:39;14.50;1.00
17621;DHT22;8929;51.008;6.804;2023-02-14T16:12:43;14.30;1.00
17621;DHT22;8929;51.008;6.804;2023-02-14T16:15:18;14.10;1.00
17621;DHT22;8929;51.008;6.804;2023-02-14T16:17:44;14.00;1.00
17621;DHT22;8929;51.008;6.804;2023-02-14T16:25:39;13.70;1.00
17621;DHT22;8929;51.008;6.804;2023-02-14T16:28:05;13.60;1.00
17621;DHT22;8929;51.008;6.804;2023-02-14T16:30:30;13.50;1.00
17621;DHT22;8929;51.008;6.804;2023-02-14T16:32:56;13.40;1.00
17621;DHT22;8929;51.008;6.804;2023-02-14T16:35:21;13.30;1.00
17621;DHT22;8929;51.008;6.804;2023-02-14T16:37:47;13.20;1.00
17621;DHT22;8929;51.008;6.804;2023-02-14T16:40:14;13.10;1.00
17621;DHT22;8929;51.008;6.804;2023-02-14T16:42:41;13.00;1.00
17621;DHT22;8929;51.008;6.804;2023-02-14T16:45:09;12.80;1.00
17621;DHT22;8929;51.008;6.804;2023-02-14T16:47:38;12.70;99.90
17621;DHT22;8929;51.008;6.804;2023-02-14T16:50:03;12.60;99.90
17621;DHT22;8929;51.008;6.804;2023-02-14T16:52:29;12.50;99.90
17621;DHT22;8929;51.008;6.804;2023-02-14T16:54:55;12.40;99.90
17621;DHT22;8929;51.008;6.804;2023-02-14T16:57:22;12.40;99.90
17621;DHT22;8929;51.008;6.804;2023-02-14T16:59:49;12.20;99.90
17621;DHT22;8929;51.008;6.804;2023-02-14T17:02:15;12.20;99.90
17621;DHT22;8929;51.008;6.804;2023-02-14T17:04:42;12.10;99.90
17621;DHT22;8929;51.008;6.804;2023-02-14T17:07:08;12.00;1.00
17621;DHT22;8929;51.008;6.804;2023-02-14T17:09:35;11.90;1.00
17621;DHT22;8929;51.008;6.804;2023-02-14T17:12:04;11.80;1.00
17621;DHT22;8929;51.008;6.804;2023-02-14T17:14:34;11.70;1.00
17621;DHT22;8929;51.008;6.804;2023-02-14T17:17:01;11.60;1.00
17621;DHT22;8929;51.008;6.804;2023-02-14T17:19:26;11.50;1.00
17621;DHT22;8929;51.008;6.804;2023-02-14T17:21:52;11.40;95.90
17621;DHT22;8929;51.008;6.804;2023-02-14T17:24:20;11.40;99.90
17621;DHT22;8929;51.008;6.804;2023-02-14T17:26:46;11.30;99.90
17621;DHT22;8929;51.008;6.804;2023-02-14T17:29:11;11.30;99.90
17621;DHT22;8929;51.008;6.804;2023-02-14T17:31:37;11.20;99.90
17621;DHT22;8929;51.008;6.804;2023-02-14T17:34:03;11.20;99.90
17621;DHT22;8929;51.008;6.804;2023-02-14T17:36:29;11.10;1.00
17621;DHT22;8929;51.008;6.804;2023-02-14T17:38:54;11.10;1.00
17621;DHT22;8929;51.008;6.804;2023-02-14T17:41:23;11.10;1.00
17621;DHT22;8929;51.008;6.804;2023-02-14T17:43:49;11.00;99.90
17621;DHT22;8929;51.008;6.804;2023-02-14T17:46:17;10.90;1.00
17621;DHT22;8929;51.008;6.804;2023-02-14T17:48:46;10.70;1.00
17621;DHT22;8929;51.008;6.804;2023-02-14T17:51:14;10.60;99.90
17621;DHT22;8929;51.008;6.804;2023-02-14T18:04:09;10.50;99.90
17621;DHT22;8929;51.008;6.804;2023-02-14T18:09:49;10.40;1.00
17621;DHT22;8929;51.008;6.804;2023-02-14T18:14:56;10.20;1.00
17621;DHT22;8929;51.008;6.804;2023-02-14T18:36:49;9.80;1.00
17621;DHT22;8929;51.008;6.804;2023-02-14T18:46:08;9.50;87.60
17621;DHT22;8929;51.008;6.804;2023-02-14T18:49:09;9.40;99.90
17621;DHT22;8929;51.008;6.804;2023-02-14T19:02:19;9.00;99.90
17621;DHT22;8929;51.008;6.804;2023-02-14T19:16:18;8.80;99.90
17621;DHT22;8929;51.008;6.804;2023-02-14T19:28:17;8.50;99.90
17621;DHT22;8929;51.008;6.804;2023-02-14T19:31:26;8.50;99.90
17621;DHT22;8929;51.008;6.804;2023-02-14T19:43:07;8.20;1.00
17621;DHT22;8929;51.008;6.804;2023-02-14T19:54:04;8.00;1.00
17621;DHT22;8929;51.008;6.804;2023-02-14T19:56:31;7.90;1.00
17621;DHT22;8929;51.008;6.804;2023-02-14T19:58:57;7.80;1.00
17621;DHT22;8929;51.008;6.804;2023-02-14T20:01:34;7.70;1.00
17621;DHT22;8929;51.008;6.804;2023-02-14T20:04:00;7.60;1.00
17621;DHT22;8929;51.008;6.804;2023-02-14T20:06:26;7.60;1.00
17621;DHT22;8929;51.008;6.804;2023-02-14T20:08:53;7.40;1.00
17621;DHT22;8929;51.008;6.804;2023-02-14T20:11:29;7.40;1.00
17621;DHT22;8929;51.008;6.804;2023-02-14T20:28:31;7.10;1.00
17621;DHT22;8929;51.008;6.804;2023-02-14T20:31:32;7.00;1.00
17621;DHT22;8929;51.008;6.804;2023-02-14T20:44:12;6.70;1.00
17621;DHT22;8929;51.008;6.804;2023-02-14T20:49:47;6.60;1.00
17621;DHT22;8929;51.008;6.804;2023-02-14T21:05:14;6.40;1.00
17621;DHT22;8929;51.008;6.804;2023-02-14T21:30:33;6.00;1.00
17621;DHT22;8929;51.008;6.804;2023-02-14T21:33:30;6.00;1.00
17621;DHT22;8929;51.008;6.804;2023-02-14T21:45:53;5.80;1.00
17621;DHT22;8929;51.008;6.804;2023-02-14T21:55:05;5.70;1.00
17621;DHT22;8929;51.008;6.804;2023-02-14T22:29:37;5.50;1.00
17621;DHT22;8929;51.008;6.804;2023-02-14T22:32:28;5.50;1.00
17621;DHT22;8929;51.008;6.804;2023-02-14T22:35:12;5.50;1.00
17621;DHT22;8929;51.008;6.804;2023-02-14T22:37:51;5.50;1.00
17621;DHT22;8929;51.008;6.804;2023-02-14T22:43:29;5.50;1.00
17621;DHT22;8929;51.008;6.804;2023-02-14T22:54:53;5.30;1.00
17621;DHT22;8929;51.008;6.804;2023-02-14T22:57:33;5.30;1.00
17621;DHT22;8929;51.008;6.804;2023-02-14T23:03:38;5.20;1.00
17621;DHT22;8929;51.008;6.804;2023-02-14T23:06:13;5.10;1.00
17621;DHT22;8929;51.008;6.804;2023-02-14T23:11:53;5.00;1.00
17621;DHT22;8929;51.008;6.804;2023-02-14T23:17:38;4.90;1.00
17621;DHT22;8929;51.008;6.804;2023-02-14T23:23:39;4.90;1.00
17621;DHT22;8929;51.008;6.804;2023-02-14T23:37:58;4.90;1.00
17621;DHT22;8929;51.008;6.804;2023-02-14T23:43:33;4.80;1.00